Time;durP1;ratioP1;P1;durP2;ratioP2;P2;SDS_P1;SDS_P2;PMS_P1;PMS_P2;Temp;Humidity;BMP_temperature;BMP_pressure;BME280_temperature;BME280_humidity;BME280_pressure;Samples;Min_cycle;Max_cycle;Signal;HPM_P1;HPM_P2
2023/08/13 00:00:59;;;;;;;15.63;7.63;;;;;;;;;;5069733;28;20443;-62
2023/08/13 00:03:24;;;;;;;40.17;10.15;;;;;;;;;;5070494;28;20056;-62
2023/08/13 00:05:49;;;;;;;11.45;6.32;;;;;;;;;;5069673;28;20019;-68
2023/08/13 00:08:14;;;;;;;10.60;6.63;;;;;;;;;;5070797;28;20581;-70
2023/08/13 00:10:39;;;;;;;11.63;6.60;;;;;;;;;;5069869;28;20020;-68
2023/08/13 00:13:05;;;;;;;10.15;5.03;;;;;;;;;;5069320;28;20472;-70
2023/08/13 00:15:30;;;;;;;13.35;4.95;;;;;;;;;;5071238;28;20361;-70
2023/08/13 00:17:55;;;;;;;8.50;4.70;;;;;;;;;;5068583;28;20066;-70
2023/08/13 00:20:20;;;;;;;9.30;4.30;;;;;;;;;;5070387;28;20059;-70
2023/08/13 00:22:45;;;;;;;7.85;4.07;;;;;;;;;;5069553;28;20033;-70
2023/08/13 00:25:10;;;;;;;8.68;4.03;;;;;;;;;;5071171;28;20040;-70
2023/08/13 00:27:36;;;;;;;12.60;3.60;;;;;;;;;;5069070;28;20036;-69
2023/08/13 00:30:01;;;;;;;11.40;4.30;;;;;;;;;;5070992;28;20452;-70
2023/08/13 00:32:26;;;;;;;18.67;7.93;;;;;;;;;;5068481;28;20541;-70
2023/08/13 00:34:51;;;;;;;7.03;4.43;;;;;;;;;;5070467;28;20027;-70
2023/08/13 00:37:16;;;;;;;10.55;5.43;;;;;;;;;;5068953;28;20048;-69
2023/08/13 00:39:42;;;;;;;9.77;5.63;;;;;;;;;;5071212;28;20024;-69
2023/08/13 00:42:07;;;;;;;17.83;4.65;;;;;;;;;;5067342;28;20090;-69
2023/08/13 00:44:32;;;;;;;9.70;4.40;;;;;;;;;;5070355;28;20039;-70
2023/08/13 00:46:57;;;;;;;11.50;4.87;;;;;;;;;;5069333;28;20109;-69
2023/08/13 00:49:23;;;;;;;12.67;3.90;;;;;;;;;;5070356;28;20027;-70
2023/08/13 00:51:49;;;;;;;12.43;5.78;;;;;;;;;;5069014;28;20037;-70
2023/08/13 00:54:14;;;;;;;16.00;4.53;;;;;;;;;;5070293;28;20072;-70
2023/08/13 00:56:40;;;;;;;9.55;4.90;;;;;;;;;;5069053;28;20033;-70
2023/08/13 00:59:06;;;;;;;11.10;3.55;;;;;;;;;;5070437;28;20021;-70
2023/08/13 01:01:31;;;;;;;8.25;4.72;;;;;;;;;;5068962;28;20106;-71
2023/08/13 01:03:56;;;;;;;5.93;4.70;;;;;;;;;;5070365;28;20055;-70
2023/08/13 01:06:40;;;;;;;7.85;4.20;;;;;;;;;;5068624;28;20090;-69
2023/08/13 01:09:08;;;;;;;9.30;3.90;;;;;;;;;;5070677;28;20073;-70
2023/08/13 01:11:40;;;;;;;12.20;4.53;;;;;;;;;;5068743;28;20032;-70
2023/08/13 01:14:10;;;;;;;14.82;4.85;;;;;;;;;;5070585;28;20383;-70
2023/08/13 01:16:37;;;;;;;16.92;4.68;;;;;;;;;;5069035;28;20071;-71
2023/08/13 01:19:04;;;;;;;10.70;5.85;;;;;;;;;;5073783;28;20048;-71
2023/08/13 01:21:29;;;;;;;11.00;5.47;;;;;;;;;;5072908;28;20041;-71
2023/08/13 01:23:54;;;;;;;8.23;5.03;;;;;;;;;;5074322;28;20020;-71
2023/08/13 01:26:20;;;;;;;10.60;5.43;;;;;;;;;;5072250;28;20075;-71
2023/08/13 01:28:48;;;;;;;15.35;6.55;;;;;;;;;;5074231;28;20097;-71
2023/08/13 01:31:25;;;;;;;15.90;7.10;;;;;;;;;;5072555;28;20032;-72
2023/08/13 01:33:50;;;;;;;11.20;5.55;;;;;;;;;;5073752;28;20024;-71
2023/08/13 01:36:17;;;;;;;15.60;6.50;;;;;;;;;;5072281;28;20037;-72
2023/08/13 01:38:43;;;;;;;11.48;6.45;;;;;;;;;;5074365;28;20009;-71
2023/08/13 01:41:08;;;;;;;14.20;4.13;;;;;;;;;;5072167;28;20037;-70
2023/08/13 01:43:33;;;;;;;7.63;5.15;;;;;;;;;;5073813;28;20031;-70
2023/08/13 01:45:59;;;;;;;13.65;6.05;;;;;;;;;;5072740;28;20032;-70
2023/08/13 01:48:25;;;;;;;13.63;4.43;;;;;;;;;;5073325;28;20051;-71
2023/08/13 01:50:50;;;;;;;12.20;6.80;;;;;;;;;;5072509;28;20487;-70
2023/08/13 01:53:15;;;;;;;11.30;5.53;;;;;;;;;;5073675;28;20028;-70
2023/08/13 01:55:40;;;;;;;20.65;5.20;;;;;;;;;;5071699;28;20447;-69
2023/08/13 01:58:05;;;;;;;10.30;4.13;;;;;;;;;;5073792;28;20020;-70
2023/08/13 02:00:30;;;;;;;9.00;4.10;;;;;;;;;;5073694;28;20056;-70
2023/08/13 02:02:55;;;;;;;9.17;3.83;;;;;;;;;;5070433;28;20075;-70
2023/08/13 02:05:21;;;;;;;11.07;3.92;;;;;;;;;;5073383;28;20056;-69
2023/08/13 02:07:46;;;;;;;12.48;3.97;;;;;;;;;;5071890;28;20040;-69
2023/08/13 02:10:11;;;;;;;12.03;5.00;;;;;;;;;;5072517;28;20051;-69
2023/08/13 02:12:36;;;;;;;10.52;4.07;;;;;;;;;;5071905;28;20063;-69
2023/08/13 02:15:02;;;;;;;13.90;4.67;;;;;;;;;;5072385;28;20012;-69
2023/08/13 02:17:27;;;;;;;7.60;3.92;;;;;;;;;;5071208;28;20048;-69
2023/08/13 02:19:52;;;;;;;11.55;4.95;;;;;;;;;;5073430;28;20496;-68
2023/08/13 02:22:17;;;;;;;9.52;4.32;;;;;;;;;;5070045;28;20044;-69
2023/08/13 02:24:43;;;;;;;11.67;4.67;;;;;;;;;;5072863;28;20025;-68
2023/08/13 02:27:08;;;;;;;6.20;4.38;;;;;;;;;;5071782;28;20110;-67
2023/08/13 02:29:33;;;;;;;16.15;5.35;;;;;;;;;;5070487;28;20021;-68
2023/08/13 02:31:58;;;;;;;6.43;4.20;;;;;;;;;;5071316;28;20491;-67
2023/08/13 02:34:23;;;;;;;10.20;4.30;;;;;;;;;;5073013;28;20021;-68
2023/08/13 02:36:49;;;;;;;7.15;3.83;;;;;;;;;;5071352;28;20131;-67
2023/08/13 02:39:14;;;;;;;10.43;4.93;;;;;;;;;;5072254;28;20055;-67
2023/08/13 02:41:39;;;;;;;11.63;4.63;;;;;;;;;;5071472;28;20040;-68
2023/08/13 02:44:04;;;;;;;9.38;6.05;;;;;;;;;;5073127;28;20423;-67
2023/08/13 02:46:30;;;;;;;14.63;4.65;;;;;;;;;;5070921;28;20041;-68
2023/08/13 02:48:55;;;;;;;11.20;5.57;;;;;;;;;;5072947;28;20047;-68
2023/08/13 02:51:20;;;;;;;9.85;4.32;;;;;;;;;;5070860;28;20042;-68
2023/08/13 02:53:45;;;;;;;19.25;7.45;;;;;;;;;;5070900;28;20513;-68
2023/08/13 02:56:10;;;;;;;28.10;6.13;;;;;;;;;;5071519;28;20047;-68
2023/08/13 02:58:36;;;;;;;7.63;4.23;;;;;;;;;;5072318;28;21025;-68
2023/08/13 03:01:01;;;;;;;13.30;4.13;;;;;;;;;;5069717;28;20064;-67
2023/08/13 03:03:26;;;;;;;11.70;4.47;;;;;;;;;;5072136;28;20487;-68
2023/08/13 03:05:52;;;;;;;13.25;4.57;;;;;;;;;;5071215;28;20032;-68
2023/08/13 03:08:17;;;;;;;6.72;4.47;;;;;;;;;;5072122;28;20020;-68
2023/08/13 03:10:42;;;;;;;10.63;4.50;;;;;;;;;;5070662;28;20480;-67
2023/08/13 03:13:07;;;;;;;10.77;4.57;;;;;;;;;;5072477;28;20017;-68
2023/08/13 03:15:32;;;;;;;24.00;5.50;;;;;;;;;;5071781;28;20055;-68
2023/08/13 03:17:57;;;;;;;22.63;4.85;;;;;;;;;;5070437;28;20376;-71
2023/08/13 03:20:23;;;;;;;11.47;4.73;;;;;;;;;;5071517;28;20059;-70
2023/08/13 03:22:48;;;;;;;14.67;4.07;;;;;;;;;;5070722;28;20126;-70
2023/08/13 03:25:13;;;;;;;9.23;4.50;;;;;;;;;;5071655;28;20024;-67
2023/08/13 03:27:38;;;;;;;18.75;5.82;;;;;;;;;;5070230;28;20041;-68
2023/08/13 03:30:04;;;;;;;12.63;4.57;;;;;;;;;;5072196;28;20016;-67
2023/08/13 03:32:29;;;;;;;8.30;3.47;;;;;;;;;;5069703;28;20029;-67
2023/08/13 03:34:54;;;;;;;12.40;3.65;;;;;;;;;;5072178;28;20016;-67
2023/08/13 03:37:19;;;;;;;13.55;4.38;;;;;;;;;;5070114;28;20056;-67
2023/08/13 03:39:44;;;;;;;11.20;4.93;;;;;;;;;;5071508;28;20016;-67
2023/08/13 03:42:10;;;;;;;9.43;4.07;;;;;;;;;;5070228;28;20067;-67
2023/08/13 03:44:35;;;;;;;11.37;4.83;;;;;;;;;;5071613;28;20375;-68
2023/08/13 03:47:00;;;;;;;21.75;6.68;;;;;;;;;;5067808;28;20159;-68
2023/08/13 03:49:25;;;;;;;8.97;4.17;;;;;;;;;;5071161;28;20021;-68
2023/08/13 03:51:51;;;;;;;12.50;6.67;;;;;;;;;;5070092;28;20112;-68
2023/08/13 03:54:16;;;;;;;13.05;5.22;;;;;;;;;;5071228;28;20035;-69
2023/08/13 03:56:42;;;;;;;9.87;4.90;;;;;;;;;;5070220;28;20029;-68
2023/08/13 03:59:07;;;;;;;14.85;5.15;;;;;;;;;;5071563;28;20020;-68
2023/08/13 04:01:32;;;;;;;13.23;5.35;;;;;;;;;;5069198;28;20040;-68
2023/08/13 04:03:57;;;;;;;16.83;7.10;;;;;;;;;;5071430;28;20475;-68
2023/08/13 04:06:22;;;;;;;13.73;4.57;;;;;;;;;;5069350;28;20036;-68
2023/08/13 04:08:47;;;;;;;7.13;5.03;;;;;;;;;;5071242;28;20475;-70
2023/08/13 04:11:13;;;;;;;13.70;6.37;;;;;;;;;;5069185;28;21079;-69
2023/08/13 04:13:38;;;;;;;14.13;4.35;;;;;;;;;;5071369;28;20108;-69
2023/08/13 04:16:03;;;;;;;11.80;4.43;;;;;;;;;;5069272;28;20062;-69
2023/08/13 04:18:28;;;;;;;9.68;5.07;;;;;;;;;;5070427;28;20403;-69
2023/08/13 04:20:53;;;;;;;12.88;3.67;;;;;;;;;;5069864;28;20074;-68
2023/08/13 04:23:18;;;;;;;10.10;5.80;;;;;;;;;;5070584;28;20572;-69
2023/08/13 04:25:43;;;;;;;9.53;5.03;;;;;;;;;;5069740;28;20024;-68
2023/08/13 04:28:09;;;;;;;30.20;7.07;;;;;;;;;;5071091;28;20543;-69
2023/08/13 04:30:34;;;;;;;14.43;6.33;;;;;;;;;;5069058;28;20033;-69
2023/08/13 04:32:59;;;;;;;14.07;4.80;;;;;;;;;;5069420;28;20059;-68
2023/08/13 04:35:25;;;;;;;9.93;5.22;;;;;;;;;;5070670;28;20009;-68
2023/08/13 04:37:50;;;;;;;16.10;5.57;;;;;;;;;;5069178;28;20039;-69
2023/08/13 04:40:16;;;;;;;11.52;5.25;;;;;;;;;;5070516;28;20161;-67
2023/08/13 04:42:41;;;;;;;11.73;4.28;;;;;;;;;;5069412;28;20072;-67
2023/08/13 04:45:07;;;;;;;13.77;5.95;;;;;;;;;;5070439;28;20024;-66
2023/08/13 04:47:32;;;;;;;9.27;4.63;;;;;;;;;;5068815;28;20038;-66
2023/08/13 04:49:57;;;;;;;13.07;4.70;;;;;;;;;;5070770;28;20479;-63
2023/08/13 04:52:22;;;;;;;18.48;6.28;;;;;;;;;;5067995;28;20029;-66
2023/08/13 04:54:47;;;;;;;14.60;6.47;;;;;;;;;;5070959;28;20048;-67
2023/08/13 04:57:13;;;;;;;6.78;3.42;;;;;;;;;;5068971;28;20564;-66
2023/08/13 04:59:38;;;;;;;16.70;4.10;;;;;;;;;;5070543;28;20021;-66
2023/08/13 05:02:03;;;;;;;11.95;4.85;;;;;;;;;;5069226;28;20067;-65
2023/08/13 05:04:28;;;;;;;10.05;4.22;;;;;;;;;;5070156;28;20020;-66
2023/08/13 05:06:53;;;;;;;13.33;5.43;;;;;;;;;;5069078;28;20059;-66
2023/08/13 05:09:18;;;;;;;11.93;5.32;;;;;;;;;;5069999;28;20019;-66
2023/08/13 05:11:44;;;;;;;12.40;5.43;;;;;;;;;;5069036;28;20758;-67
2023/08/13 05:14:09;;;;;;;15.47;4.70;;;;;;;;;;5070450;28;20510;-66
2023/08/13 05:16:34;;;;;;;5.65;4.35;;;;;;;;;;5068281;28;20040;-66
2023/08/13 05:18:59;;;;;;;11.85;5.35;;;;;;;;;;5070321;28;20044;-67
2023/08/13 05:21:24;;;;;;;8.50;3.90;;;;;;;;;;5067650;28;20512;-67
2023/08/13 05:23:49;;;;;;;10.27;5.03;;;;;;;;;;5070198;28;20016;-67
2023/08/13 05:26:14;;;;;;;7.95;4.10;;;;;;;;;;5068874;28;20036;-66
2023/08/13 05:28:40;;;;;;;14.60;6.20;;;;;;;;;;5070213;28;20085;-70
2023/08/13 05:31:05;;;;;;;11.20;4.72;;;;;;;;;;5068026;28;20536;-72
2023/08/13 05:33:30;;;;;;;8.30;6.27;;;;;;;;;;5069848;28;20035;-71
2023/08/13 05:35:55;;;;;;;9.60;5.37;;;;;;;;;;5068434;28;20048;-70
2023/08/13 05:38:20;;;;;;;13.00;6.20;;;;;;;;;;5068467;28;20520;-70
2023/08/13 05:40:47;;;;;;;9.50;4.57;;;;;;;;;;5066047;28;20024;-72
2023/08/13 05:43:12;;;;;;;15.63;7.72;;;;;;;;;;5069968;28;20561;-68
2023/08/13 05:45:37;;;;;;;9.30;4.22;;;;;;;;;;5067788;28;20052;-66
2023/08/13 05:48:02;;;;;;;14.57;5.63;;;;;;;;;;5068212;28;20376;-68
2023/08/13 05:50:29;;;;;;;18.48;6.18;;;;;;;;;;5069453;28;20031;-68
2023/08/13 05:52:54;;;;;;;15.65;4.40;;;;;;;;;;5067857;28;20035;-68
2023/08/13 05:55:19;;;;;;;8.57;4.82;;;;;;;;;;5068287;28;20024;-68
2023/08/13 05:57:45;;;;;;;15.23;4.35;;;;;;;;;;5067857;28;20043;-68
2023/08/13 06:00:10;;;;;;;8.55;3.72;;;;;;;;;;5068784;28;20031;-68
2023/08/13 06:02:36;;;;;;;13.27;4.65;;;;;;;;;;5066447;28;20546;-67
2023/08/13 06:05:01;;;;;;;15.75;6.05;;;;;;;;;;5072117;28;20021;-67
2023/08/13 06:07:28;;;;;;;8.87;4.27;;;;;;;;;;5069906;28;20033;-68
2023/08/13 06:09:53;;;;;;;8.93;3.90;;;;;;;;;;5073119;28;20019;-68
2023/08/13 06:12:18;;;;;;;11.57;3.38;;;;;;;;;;5070823;28;20496;-68
2023/08/13 06:14:43;;;;;;;21.75;7.38;;;;;;;;;;5072780;28;20082;-68
2023/08/13 06:17:09;;;;;;;9.40;3.33;;;;;;;;;;5070949;28;20071;-67
2023/08/13 06:19:34;;;;;;;11.00;4.70;;;;;;;;;;5071335;28;20040;-68
2023/08/13 06:21:59;;;;;;;11.15;4.28;;;;;;;;;;5070694;28;20451;-68
2023/08/13 06:24:24;;;;;;;3.97;3.10;;;;;;;;;;5071968;28;20384;-68
2023/08/13 06:26:49;;;;;;;15.05;4.60;;;;;;;;;;5070242;28;20036;-68
2023/08/13 06:29:14;;;;;;;24.47;4.50;;;;;;;;;;5072124;28;20025;-68
2023/08/13 06:31:40;;;;;;;8.07;3.60;;;;;;;;;;5070987;28;20044;-68
2023/08/13 06:34:05;;;;;;;9.35;3.45;;;;;;;;;;5071774;28;20024;-68
2023/08/13 06:36:30;;;;;;;13.45;4.93;;;;;;;;;;5070023;28;20303;-69
2023/08/13 06:38:55;;;;;;;21.08;4.50;;;;;;;;;;5072496;28;20017;-68
2023/08/13 06:41:20;;;;;;;13.20;5.38;;;;;;;;;;5069435;28;20036;-68
2023/08/13 06:43:45;;;;;;;31.13;6.20;;;;;;;;;;5072009;28;20533;-68
2023/08/13 06:46:10;;;;;;;15.88;4.57;;;;;;;;;;5070614;28;20037;-68
2023/08/13 06:48:38;;;;;;;8.25;4.35;;;;;;;;;;5071087;28;20430;-68
2023/08/13 06:51:04;;;;;;;15.52;5.45;;;;;;;;;;5070561;28;20043;-68
2023/08/13 06:53:29;;;;;;;12.77;3.85;;;;;;;;;;5072425;28;20013;-68
2023/08/13 06:55:54;;;;;;;9.15;3.10;;;;;;;;;;5069943;28;20112;-67
2023/08/13 06:58:19;;;;;;;10.70;3.63;;;;;;;;;;5071133;28;20020;-67
2023/08/13 07:00:45;;;;;;;13.50;3.27;;;;;;;;;;5070480;28;20023;-70
2023/08/13 07:03:11;;;;;;;7.90;2.88;;;;;;;;;;5070398;28;20020;-72
2023/08/13 07:05:37;;;;;;;9.05;3.83;;;;;;;;;;5071755;28;20050;-61
2023/08/13 07:08:04;;;;;;;7.93;3.08;;;;;;;;;;5070647;28;20163;-61
2023/08/13 07:10:29;;;;;;;11.35;6.13;;;;;;;;;;5070795;28;20025;-61
2023/08/13 07:12:54;;;;;;;14.23;3.33;;;;;;;;;;5088937;28;20622;-62
2023/08/13 07:15:19;;;;;;;10.57;3.67;;;;;;;;;;5089520;28;20023;-61
2023/08/13 07:17:44;;;;;;;7.93;2.33;;;;;;;;;;5050534;28;20423;-62
2023/08/13 07:20:13;;;;;;;7.93;2.40;;;;;;;;;;5051230;28;20048;-61
2023/08/13 07:22:38;;;;;;;10.00;3.25;;;;;;;;;;5048689;28;20047;-62
2023/08/13 07:25:05;;;;;;;9.30;3.72;;;;;;;;;;5050124;28;20028;-61
2023/08/13 07:27:30;;;;;;;6.38;3.03;;;;;;;;;;5048712;28;20403;-61
2023/08/13 07:29:57;;;;;;;7.43;2.45;;;;;;;;;;5050279;28;20534;-62
2023/08/13 07:32:22;;;;;;;7.97;2.00;;;;;;;;;;5046198;28;20033;-62
2023/08/13 07:34:47;;;;;;;6.93;2.53;;;;;;;;;;5051465;28;20020;-61
2023/08/13 07:37:12;;;;;;;8.43;2.78;;;;;;;;;;5049434;28;20043;-61
2023/08/13 07:39:38;;;;;;;8.87;3.67;;;;;;;;;;5049656;28;20499;-63
2023/08/13 07:42:03;;;;;;;11.07;3.58;;;;;;;;;;5049300;28;20455;-64
2023/08/13 07:44:29;;;;;;;11.75;4.22;;;;;;;;;;5050572;28;20144;-63
2023/08/13 07:46:58;;;;;;;11.23;3.33;;;;;;;;;;5048583;28;20135;-63
2023/08/13 07:49:24;;;;;;;9.65;2.97;;;;;;;;;;5051110;28;20421;-63
2023/08/13 07:51:50;;;;;;;8.00;2.83;;;;;;;;;;5048978;28;20044;-63
2023/08/13 07:54:15;;;;;;;7.28;2.53;;;;;;;;;;5050070;28;20019;-63
2023/08/13 07:56:40;;;;;;;5.83;2.80;;;;;;;;;;5049644;28;20512;-63
2023/08/13 07:59:05;;;;;;;17.38;4.88;;;;;;;;;;5050710;28;20980;-62
2023/08/13 08:01:30;;;;;;;13.97;4.77;;;;;;;;;;5046803;28;20037;-63
2023/08/13 08:03:55;;;;;;;8.52;3.30;;;;;;;;;;5046863;28;20020;-63
2023/08/13 08:06:21;;;;;;;8.90;2.37;;;;;;;;;;5048128;28;20032;-62
2023/08/13 08:08:46;;;;;;;16.58;2.92;;;;;;;;;;5048784;28;20381;-63
2023/08/13 08:11:11;;;;;;;10.27;3.13;;;;;;;;;;5046580;28;20037;-63
2023/08/13 08:13:36;;;;;;;7.03;2.10;;;;;;;;;;5049913;28;20024;-63
2023/08/13 08:16:02;;;;;;;12.67;2.97;;;;;;;;;;5047834;28;20037;-66
2023/08/13 08:18:28;;;;;;;4.57;1.92;;;;;;;;;;5046570;28;20073;-67
2023/08/13 08:20:53;;;;;;;8.50;3.10;;;;;;;;;;5046236;28;20534;-66
2023/08/13 08:23:18;;;;;;;5.75;2.13;;;;;;;;;;5029538;28;20018;-67
2023/08/13 08:25:44;;;;;;;8.57;2.67;;;;;;;;;;5028684;28;20376;-66
2023/08/13 08:28:09;;;;;;;8.75;2.72;;;;;;;;;;5029348;28;20025;-65
2023/08/13 08:30:35;;;;;;;7.75;3.42;;;;;;;;;;5029775;28;20645;-65
2023/08/13 08:33:00;;;;;;;8.93;2.77;;;;;;;;;;5028306;28;20032;-66
2023/08/13 08:35:25;;;;;;;9.05;1.83;;;;;;;;;;5029915;28;20389;-66
2023/08/13 08:37:50;;;;;;;4.90;2.60;;;;;;;;;;5028917;28;20400;-66
2023/08/13 08:40:15;;;;;;;10.85;2.33;;;;;;;;;;5029508;28;20105;-66
2023/08/13 08:42:41;;;;;;;8.53;3.00;;;;;;;;;;5028192;28;20038;-63
2023/08/13 08:45:08;;;;;;;8.95;3.05;;;;;;;;;;5030293;28;20452;-63
2023/08/13 08:47:34;;;;;;;7.55;2.33;;;;;;;;;;5027442;28;20045;-64
2023/08/13 08:50:02;;;;;;;10.40;2.33;;;;;;;;;;5026333;28;20020;-63
2023/08/13 08:52:27;;;;;;;6.38;3.03;;;;;;;;;;5025140;28;20084;-64
2023/08/13 08:54:52;;;;;;;8.70;2.93;;;;;;;;;;5029719;28;20496;-63
2023/08/13 08:57:17;;;;;;;11.27;2.75;;;;;;;;;;5027671;28;20046;-63
2023/08/13 08:59:43;;;;;;;10.88;3.15;;;;;;;;;;5029965;28;20025;-64
2023/08/13 09:02:10;;;;;;;9.07;3.15;;;;;;;;;;5040890;28;20029;-63
2023/08/13 09:04:35;;;;;;;22.40;3.00;;;;;;;;;;5048751;28;20013;-63
2023/08/13 09:07:02;;;;;;;3.90;2.38;;;;;;;;;;5048308;28;20047;-64
2023/08/13 09:09:28;;;;;;;7.82;2.83;;;;;;;;;;5050011;28;20055;-66
2023/08/13 09:11:54;;;;;;;6.60;3.38;;;;;;;;;;5048444;28;20037;-65
2023/08/13 09:14:20;;;;;;;11.48;3.10;;;;;;;;;;5049927;28;20016;-65
2023/08/13 09:16:45;;;;;;;7.63;2.70;;;;;;;;;;5048238;28;20037;-65
2023/08/13 09:19:11;;;;;;;4.82;2.55;;;;;;;;;;5049747;28;20426;-65
2023/08/13 09:21:36;;;;;;;12.57;3.45;;;;;;;;;;5048983;28;20049;-66
2023/08/13 09:24:01;;;;;;;8.80;3.77;;;;;;;;;;5049987;28;20021;-66
2023/08/13 09:26:27;;;;;;;11.13;4.50;;;;;;;;;;5046620;28;20450;-66
2023/08/13 09:28:52;;;;;;;9.85;2.97;;;;;;;;;;5050117;28;20050;-66
2023/08/13 09:31:17;;;;;;;7.63;1.98;;;;;;;;;;5048285;28;20420;-65
2023/08/13 09:33:44;;;;;;;7.07;3.30;;;;;;;;;;5050020;28;20032;-66
2023/08/13 09:36:09;;;;;;;11.15;3.30;;;;;;;;;;5048203;28;20029;-66
2023/08/13 09:38:35;;;;;;;12.07;4.00;;;;;;;;;;5050709;28;20032;-66
2023/08/13 09:41:00;;;;;;;8.98;3.55;;;;;;;;;;5051680;28;20037;-65
2023/08/13 09:43:28;;;;;;;8.90;2.83;;;;;;;;;;5053792;28;20400;-65
2023/08/13 09:45:55;;;;;;;11.63;2.95;;;;;;;;;;5052253;28;20122;-66
2023/08/13 09:48:21;;;;;;;6.60;2.92;;;;;;;;;;5052996;28;20487;-66
2023/08/13 09:50:48;;;;;;;11.52;3.13;;;;;;;;;;5052319;28;20472;-65
2023/08/13 09:53:14;;;;;;;10.00;3.10;;;;;;;;;;5053533;28;20013;-66
2023/08/13 09:55:41;;;;;;;7.47;2.70;;;;;;;;;;5051560;28;20013;-65
2023/08/13 09:58:07;;;;;;;9.45;2.40;;;;;;;;;;5053016;28;20028;-65
2023/08/13 10:00:33;;;;;;;7.45;3.28;;;;;;;;;;5052502;28;20021;-65
2023/08/13 10:02:59;;;;;;;11.35;2.67;;;;;;;;;;5051435;28;20043;-65
2023/08/13 10:05:25;;;;;;;7.40;3.47;;;;;;;;;;5052830;28;20017;-65
2023/08/13 10:07:50;;;;;;;10.45;2.95;;;;;;;;;;5051465;28;20483;-67
2023/08/13 10:10:15;;;;;;;8.07;2.40;;;;;;;;;;5052844;28;20017;-66
2023/08/13 10:12:41;;;;;;;12.43;3.05;;;;;;;;;;5050189;28;20040;-65
2023/08/13 10:15:07;;;;;;;9.45;4.35;;;;;;;;;;5053296;28;20021;-64
2023/08/13 10:17:32;;;;;;;10.00;3.15;;;;;;;;;;5050884;28;20045;-64
2023/08/13 10:19:58;;;;;;;8.90;3.47;;;;;;;;;;5050655;28;21723;-65
2023/08/13 10:22:30;;;;;;;6.28;2.00;;;;;;;;;;5050908;28;20094;-65
2023/08/13 10:24:55;;;;;;;6.05;2.38;;;;;;;;;;5053092;28;20381;-64
2023/08/13 10:27:20;;;;;;;8.07;3.47;;;;;;;;;;5050899;28;20040;-65
2023/08/13 10:29:46;;;;;;;13.05;3.35;;;;;;;;;;5052588;28;20431;-64
2023/08/13 10:32:14;;;;;;;6.93;3.25;;;;;;;;;;5051412;28;20079;-64
2023/08/13 10:34:43;;;;;;;17.60;3.10;;;;;;;;;;5052765;28;20122;-65
2023/08/13 10:37:15;;;;;;;8.90;3.63;;;;;;;;;;5051337;28;20072;-65
2023/08/13 10:39:41;;;;;;;9.93;3.38;;;;;;;;;;5052967;28;20048;-65
2023/08/13 10:42:25;;;;;;;7.38;3.70;;;;;;;;;;5051013;28;20029;-64
2023/08/13 10:44:50;;;;;;;13.35;2.67;;;;;;;;;;5051969;28;20044;-65
2023/08/13 10:47:15;;;;;;;8.65;2.38;;;;;;;;;;5050257;28;20029;-65
2023/08/13 10:49:40;;;;;;;13.95;3.80;;;;;;;;;;5051106;28;20020;-65
2023/08/13 10:52:05;;;;;;;5.97;2.08;;;;;;;;;;5050343;28;20520;-65
2023/08/13 10:54:32;;;;;;;8.57;4.07;;;;;;;;;;5052125;28;20028;-65
2023/08/13 10:56:58;;;;;;;12.25;2.42;;;;;;;;;;5050801;28;20373;-66
2023/08/13 10:59:30;;;;;;;8.10;3.00;;;;;;;;;;5051639;28;20029;-65
2023/08/13 11:02:15;;;;;;;8.65;2.60;;;;;;;;;;5051131;28;20032;-65
2023/08/13 11:04:42;;;;;;;5.25;1.95;;;;;;;;;;5051312;28;20048;-65
2023/08/13 11:07:07;;;;;;;5.72;2.38;;;;;;;;;;5050576;28;20539;-64
2023/08/13 11:09:33;;;;;;;10.75;2.78;;;;;;;;;;5051674;28;20017;-64
2023/08/13 11:11:58;;;;;;;7.93;1.90;;;;;;;;;;5050364;28;20040;-65
2023/08/13 11:14:23;;;;;;;5.53;2.30;;;;;;;;;;5051712;28;20468;-64
2023/08/13 11:16:48;;;;;;;7.97;2.80;;;;;;;;;;5050488;28;20037;-65
2023/08/13 11:19:13;;;;;;;4.28;2.72;;;;;;;;;;5051279;28;20412;-65
2023/08/13 11:21:39;;;;;;;9.80;2.28;;;;;;;;;;5050442;28;20036;-66
2023/08/13 11:24:05;;;;;;;5.80;2.83;;;;;;;;;;5051851;28;20017;-65
2023/08/13 11:26:34;;;;;;;8.07;3.08;;;;;;;;;;5049256;28;20446;-65
2023/08/13 11:28:59;;;;;;;3.83;2.08;;;;;;;;;;5051874;28;20017;-64
2023/08/13 11:31:24;;;;;;;5.30;2.17;;;;;;;;;;5050127;28;20124;-65
2023/08/13 11:33:49;;;;;;;3.83;2.40;;;;;;;;;;5049572;28;20021;-65
2023/08/13 11:36:15;;;;;;;3.90;2.17;;;;;;;;;;5048103;28;20055;-65
2023/08/13 11:38:40;;;;;;;6.80;2.05;;;;;;;;;;5051803;28;20424;-64
2023/08/13 11:41:12;;;;;;;9.35;3.60;;;;;;;;;;5049542;28;20044;-64
2023/08/13 11:43:37;;;;;;;8.75;2.10;;;;;;;;;;5051543;28;20025;-65
2023/08/13 11:46:03;;;;;;;8.63;3.97;;;;;;;;;;5050075;28;20438;-66
2023/08/13 11:48:30;;;;;;;4.97;2.05;;;;;;;;;;5050758;28;20032;-66
2023/08/13 11:50:57;;;;;;;5.18;2.47;;;;;;;;;;5049833;28;20025;-66
2023/08/13 11:53:23;;;;;;;11.75;2.55;;;;;;;;;;5051109;28;20021;-66
2023/08/13 11:55:48;;;;;;;12.25;2.28;;;;;;;;;;5048857;28;20040;-65
2023/08/13 11:58:17;;;;;;;4.07;1.77;;;;;;;;;;5050789;28;20143;-65
2023/08/13 12:00:43;;;;;;;8.95;2.13;;;;;;;;;;5049675;28;20021;-65
2023/08/13 12:03:08;;;;;;;10.90;1.98;;;;;;;;;;5050131;28;20135;-72
2023/08/13 12:05:34;;;;;;;9.60;3.17;;;;;;;;;;5049914;28;20392;-66
2023/08/13 12:08:00;;;;;;;6.05;2.22;;;;;;;;;;5049400;28;20044;-72
2023/08/13 12:10:25;;;;;;;4.28;1.75;;;;;;;;;;5049541;28;20463;-65
2023/08/13 12:12:51;;;;;;;5.75;2.40;;;;;;;;;;5049039;28;20136;-66
2023/08/13 12:15:17;;;;;;;12.30;2.67;;;;;;;;;;5051021;28;20013;-66
2023/08/13 12:17:42;;;;;;;6.88;2.45;;;;;;;;;;5048780;28;20053;-65
2023/08/13 12:20:10;;;;;;;3.90;1.90;;;;;;;;;;5050070;28;20080;-65
2023/08/13 12:22:35;;;;;;;13.82;2.58;;;;;;;;;;5041661;28;20036;-65
2023/08/13 12:25:00;;;;;;;5.40;2.07;;;;;;;;;;5050461;28;20537;-65
2023/08/13 12:27:25;;;;;;;9.65;3.25;;;;;;;;;;5049017;28;20120;-66
2023/08/13 12:29:50;;;;;;;7.67;2.10;;;;;;;;;;5050238;28;20028;-65
2023/08/13 12:32:16;;;;;;;9.33;2.20;;;;;;;;;;5047846;28;21006;-65
2023/08/13 12:34:41;;;;;;;7.28;1.90;;;;;;;;;;5050139;28;20116;-66
2023/08/13 12:37:07;;;;;;;8.57;2.20;;;;;;;;;;5048957;28;20041;-65
2023/08/13 12:39:32;;;;;;;5.35;2.53;;;;;;;;;;5049577;28;20029;-65
2023/08/13 12:41:57;;;;;;;7.38;2.00;;;;;;;;;;5048457;28;20646;-65
2023/08/13 12:44:23;;;;;;;5.65;1.83;;;;;;;;;;5050122;28;20029;-65
2023/08/13 12:46:48;;;;;;;3.92;1.45;;;;;;;;;;5048163;28;20527;-65
2023/08/13 12:49:13;;;;;;;5.23;2.17;;;;;;;;;;5049887;28;20025;-65
2023/08/13 12:51:38;;;;;;;6.28;2.40;;;;;;;;;;5048689;28;20037;-65
2023/08/13 12:54:03;;;;;;;5.50;1.80;;;;;;;;;;5050279;28;20016;-65
2023/08/13 12:56:29;;;;;;;14.37;2.97;;;;;;;;;;5048901;28;20098;-65
2023/08/13 12:58:54;;;;;;;4.23;1.80;;;;;;;;;;5050446;28;20442;-66
2023/08/13 13:01:19;;;;;;;8.63;2.45;;;;;;;;;;5048674;28;20125;-65
2023/08/13 13:03:44;;;;;;;8.50;3.23;;;;;;;;;;5050326;28;20472;-66
2023/08/13 13:06:09;;;;;;;7.13;2.30;;;;;;;;;;5049293;28;21074;-66
2023/08/13 13:08:35;;;;;;;4.53;2.13;;;;;;;;;;5049140;28;20873;-68
2023/08/13 13:11:00;;;;;;;11.02;3.38;;;;;;;;;;5048228;28;20037;-66
2023/08/13 13:13:26;;;;;;;6.83;2.30;;;;;;;;;;5050707;28;20016;-66
2023/08/13 13:15:51;;;;;;;7.97;2.58;;;;;;;;;;5052632;28;20459;-65
2023/08/13 13:18:16;;;;;;;6.30;2.22;;;;;;;;;;5054401;28;20052;-66
2023/08/13 13:20:41;;;;;;;4.03;1.90;;;;;;;;;;5053192;28;20503;-65
2023/08/13 13:23:07;;;;;;;9.53;3.40;;;;;;;;;;5054410;28;20032;-66
2023/08/13 13:25:32;;;;;;;7.95;2.75;;;;;;;;;;5054078;28;20376;-66
2023/08/13 13:28:00;;;;;;;6.47;2.38;;;;;;;;;;5052734;28;20114;-66
2023/08/13 13:30:28;;;;;;;8.63;2.90;;;;;;;;;;5053700;28;20464;-66
2023/08/13 13:32:53;;;;;;;5.50;2.60;;;;;;;;;;5052820;28;20120;-66
2023/08/13 13:35:18;;;;;;;4.68;2.65;;;;;;;;;;5054147;28;20498;-66
2023/08/13 13:37:44;;;;;;;5.00;1.93;;;;;;;;;;5051088;28;20033;-66
2023/08/13 13:40:10;;;;;;;7.83;2.67;;;;;;;;;;5052460;28;20108;-67
2023/08/13 13:42:35;;;;;;;8.10;2.95;;;;;;;;;;5050298;28;20838;-66
2023/08/13 13:45:01;;;;;;;3.83;2.20;;;;;;;;;;5053004;28;20024;-65
2023/08/13 13:47:26;;;;;;;7.35;2.50;;;;;;;;;;5052385;28;20064;-63
2023/08/13 13:49:51;;;;;;;20.95;4.05;;;;;;;;;;5054004;28;20017;-63
2023/08/13 13:52:16;;;;;;;8.03;2.30;;;;;;;;;;5052160;28;20401;-63
2023/08/13 13:54:41;;;;;;;9.57;2.43;;;;;;;;;;5053282;28;21012;-63
2023/08/13 13:57:06;;;;;;;6.57;2.03;;;;;;;;;;5052548;28;20032;-63
2023/08/13 13:59:32;;;;;;;9.02;2.50;;;;;;;;;;5053301;28;20021;-63
2023/08/13 14:01:57;;;;;;;6.90;2.83;;;;;;;;;;5052045;28;20512;-63
2023/08/13 14:04:22;;;;;;;5.23;2.27;;;;;;;;;;5053381;28;20024;-63
2023/08/13 14:06:47;;;;;;;4.70;1.73;;;;;;;;;;5052373;28;20412;-63
2023/08/13 14:09:15;;;;;;;8.17;2.67;;;;;;;;;;5052881;28;20052;-63
2023/08/13 14:11:40;;;;;;;;;;;;;;;;;;5052731;28;20432;-63
2023/08/13 14:14:06;;;;;;;10.13;3.72;;;;;;;;;;5054122;28;19960;-63
2023/08/13 14:16:31;;;;;;;4.88;3.08;;;;;;;;;;5051617;28;20079;-63
2023/08/13 14:18:56;;;;;;;9.10;3.03;;;;;;;;;;5053364;28;20049;-63
2023/08/13 14:21:21;;;;;;;7.85;3.08;;;;;;;;;;5053185;28;20665;-63
2023/08/13 14:23:47;;;;;;;9.70;3.50;;;;;;;;;;5051445;28;20064;-63
2023/08/13 14:26:12;;;;;;;13.13;3.37;;;;;;;;;;5053094;28;20017;-63
2023/08/13 14:28:37;;;;;;;6.43;3.43;;;;;;;;;;5051962;28;20036;-63